Time;durP1;ratioP1;P1;durP2;ratioP2;P2;SDS_P1;SDS_P2;PMS_P1;PMS_P2;Temp;Humidity;BMP_temperature;BMP_pressure;BME280_temperature;BME280_humidity;BME280_pressure;Samples;Min_cycle;Max_cycle;Signal;HPM_P1;HPM_P2
2024/01/24 00:00:21;;;;;;;0.30;0.30;;;14.00;99.90;;;;;;5010645;28;20371;-75
2024/01/24 00:02:48;;;;;;;0.63;0.22;;;14.10;99.90;;;;;;4993175;28;20038;-75
2024/01/24 00:05:14;;;;;;;0.15;0.15;;;14.00;99.90;;;;;;5006425;28;20026;-75
2024/01/24 00:07:40;;;;;;;2.40;0.90;;;14.00;99.90;;;;;;5010766;28;20033;-76
2024/01/24 00:10:06;;;;;;;4.57;0.40;;;14.00;99.90;;;;;;5007154;28;20522;-76
2024/01/24 00:12:32;;;;;;;0.55;0.50;;;14.00;99.90;;;;;;5006839;28;20018;-76
2024/01/24 00:14:59;;;;;;;0.20;0.20;;;14.00;99.90;;;;;;5010467;28;20061;-76
2024/01/24 00:17:25;;;;;;;7.10;0.88;;;14.00;99.90;;;;;;5003102;28;20073;-76
2024/01/24 00:19:51;;;;;;;1.05;0.47;;;14.00;99.90;;;;;;5002780;28;20057;-75
2024/01/24 00:22:16;;;;;;;4.28;2.40;;;14.00;99.90;;;;;;5018425;28;20493;-76
2024/01/24 00:24:42;;;;;;;1.15;0.52;;;14.00;99.90;;;;;;5003928;28;20214;-75
2024/01/24 00:27:08;;;;;;;5.88;0.77;;;14.00;99.90;;;;;;4999572;28;20494;-76
2024/01/24 00:29:33;;;;;;;0.90;0.43;;;14.00;99.90;;;;;;5015530;28;20105;-76
2024/01/24 00:31:59;;;;;;;1.02;0.80;;;14.00;99.90;;;;;;5012593;28;20489;-75
2024/01/24 00:34:25;;;;;;;25.70;2.85;;;14.00;99.90;;;;;;4999772;28;20025;-76
2024/01/24 00:36:51;;;;;;;2.83;0.63;;;13.90;99.90;;;;;;4998085;28;20038;-76
2024/01/24 00:39:17;;;;;;;0.20;0.20;;;14.00;99.90;;;;;;5006233;28;20105;-77
2024/01/24 00:41:43;;;;;;;0.70;0.70;;;14.00;99.90;;;;;;5013364;28;20030;-76
2024/01/24 00:44:09;;;;;;;1.35;0.82;;;14.00;99.90;;;;;;5015650;28;20018;-76
2024/01/24 00:46:35;;;;;;;0.45;0.38;;;14.00;99.90;;;;;;5012338;28;20026;-76
2024/01/24 00:49:09;;;;;;;3.45;0.68;;;13.90;99.90;;;;;;5009880;28;20102;-77
2024/01/24 00:51:35;;;;;;;1.45;0.60;;;13.90;99.90;;;;;;5001708;28;20038;-78
2024/01/24 00:54:01;;;;;;;0.50;0.50;;;14.00;99.90;;;;;;5003382;28;20022;-76
2024/01/24 00:56:27;;;;;;;0.93;0.77;;;14.00;99.90;;;;;;4999256;28;20032;-76
2024/01/24 00:58:55;;;;;;;2.08;1.13;;;13.90;99.90;;;;;;4999197;28;20054;-77
2024/01/24 01:01:21;;;;;;;1.00;0.63;;;13.90;99.90;;;;;;4996836;28;20061;-76
2024/01/24 01:03:48;;;;;;;1.65;0.90;;;14.00;99.90;;;;;;4996042;28;20054;-77
2024/01/24 01:06:13;;;;;;;6.22;0.50;;;14.00;99.90;;;;;;5004934;28;20022;-77
2024/01/24 01:08:40;;;;;;;0.68;0.43;;;14.00;99.90;;;;;;5011699;28;20035;-77
2024/01/24 01:11:06;;;;;;;0.90;0.60;;;14.00;99.90;;;;;;5013950;28;20026;-77
2024/01/24 01:13:34;;;;;;;0.63;0.52;;;14.00;99.90;;;;;;5008204;28;20430;-77
2024/01/24 01:16:00;;;;;;;0.30;0.30;;;14.10;99.90;;;;;;5025127;28;20052;-78
2024/01/24 01:18:26;;;;;;;0.85;0.28;;;14.10;99.90;;;;;;5004973;28;20030;-77
2024/01/24 01:20:52;;;;;;;5.97;0.80;;;14.10;99.90;;;;;;5005656;28;20105;-76
2024/01/24 01:23:18;;;;;;;1.30;0.77;;;14.10;99.90;;;;;;5002321;28;20050;-77
2024/01/24 01:25:44;;;;;;;0.35;0.35;;;14.10;99.90;;;;;;5001126;28;20046;-77
2024/01/24 01:28:10;;;;;;;0.80;0.63;;;14.10;99.90;;;;;;5014605;28;20030;-76
2024/01/24 01:30:36;;;;;;;0.80;0.80;;;14.10;99.90;;;;;;5014782;28;20021;-79
2024/01/24 01:33:02;;;;;;;0.73;0.50;;;14.10;99.90;;;;;;5014410;28;20030;-80
2024/01/24 01:35:28;;;;;;;0.77;0.40;;;14.10;99.90;;;;;;5013461;28;20038;-79
2024/01/24 01:37:53;;;;;;;0.40;0.40;;;14.20;99.90;;;;;;5014084;28;20034;-78
2024/01/24 01:40:19;;;;;;;0.63;0.55;;;14.20;99.90;;;;;;5013698;28;20034;-79
2024/01/24 01:42:46;;;;;;;0.98;0.43;;;14.20;99.90;;;;;;5014564;28;20056;-79
2024/01/24 01:45:12;;;;;;;1.73;0.73;;;14.20;99.90;;;;;;5014611;28;20054;-79
2024/01/24 01:47:39;;;;;;;0.30;0.30;;;14.20;99.90;;;;;;5014611;28;20117;-80
2024/01/24 01:50:10;;;;;;;0.20;0.20;;;14.20;99.90;;;;;;5014315;28;20092;-79
2024/01/24 01:52:38;;;;;;;0.30;0.30;;;14.20;99.90;;;;;;5014369;28;20046;-80
2024/01/24 01:55:06;;;;;;;1.15;0.80;;;14.30;99.90;;;;;;5014378;28;20057;-80
2024/01/24 01:57:33;;;;;;;0.40;0.40;;;14.30;99.90;;;;;;5014519;28;20024;-79
2024/01/24 01:59:59;;;;;;;0.10;0.08;;;14.30;99.90;;;;;;5012954;28;20116;-80
2024/01/24 02:02:25;;;;;;;0.10;0.10;;;14.40;99.90;;;;;;5014223;28;20033;-80
2024/01/24 02:04:52;;;;;;;0.30;0.30;;;14.40;99.90;;;;;;5014324;28;20034;-79
2024/01/24 02:07:17;;;;;;;0.20;0.20;;;14.40;99.90;;;;;;5012688;28;20045;-79
2024/01/24 02:09:44;;;;;;;0.30;0.20;;;14.40;99.90;;;;;;5014256;28;20040;-79
2024/01/24 02:12:10;;;;;;;0.10;0.10;;;14.40;99.90;;;;;;5012699;28;20548;-78
2024/01/24 02:14:36;;;;;;;0.57;0.47;;;14.40;99.90;;;;;;5013840;28;20029;-79
2024/01/24 02:17:01;;;;;;;0.88;0.10;;;14.40;99.90;;;;;;5013936;28;20050;-79
2024/01/24 02:19:27;;;;;;;2.08;0.40;;;14.50;99.90;;;;;;5013024;28;20060;-79
2024/01/24 02:21:53;;;;;;;1.27;0.45;;;14.60;99.90;;;;;;5013616;28;20033;-79
2024/01/24 02:24:19;;;;;;;0.20;0.20;;;14.60;99.90;;;;;;5013842;28;20033;-78
2024/01/24 02:26:45;;;;;;;0.38;0.25;;;14.50;99.90;;;;;;5013788;28;20030;-78
2024/01/24 02:29:11;;;;;;;0.38;0.20;;;14.50;99.90;;;;;;5013699;28;20508;-79
2024/01/24 02:31:37;;;;;;;0.15;0.15;;;14.50;99.90;;;;;;5012724;28;20041;-79
2024/01/24 02:34:03;;;;;;;2.28;1.08;;;14.60;99.90;;;;;;5013514;28;20478;-79
2024/01/24 02:36:29;;;;;;;1.35;0.20;;;14.50;99.90;;;;;;5013781;28;20022;-79
2024/01/24 02:38:55;;;;;;;0.50;0.20;;;14.40;99.90;;;;;;5012817;28;20470;-78
2024/01/24 02:41:21;;;;;;;0.45;0.30;;;14.40;99.90;;;;;;5013547;28;20034;-79
2024/01/24 02:43:47;;;;;;;0.45;0.45;;;14.30;99.90;;;;;;5013495;28;20032;-79
2024/01/24 02:46:13;;;;;;;0.77;0.47;;;14.30;99.90;;;;;;5013736;28;20006;-78
2024/01/24 02:48:38;;;;;;;1.58;0.73;;;14.20;99.90;;;;;;5012232;28;20450;-78
2024/01/24 02:51:04;;;;;;;2.58;0.40;;;14.20;99.90;;;;;;5011883;28;20022;-79
2024/01/24 02:53:30;;;;;;;2.85;0.47;;;14.20;99.90;;;;;;5013403;28;20507;-79
2024/01/24 02:55:56;;;;;;;0.43;0.20;;;14.10;99.90;;;;;;5013407;28;20128;-79
2024/01/24 02:58:22;;;;;;;3.30;0.90;;;14.10;99.90;;;;;;5013310;28;20029;-78
2024/01/24 03:00:47;;;;;;;1.85;0.65;;;14.10;99.90;;;;;;5012265;28;20030;-78
2024/01/24 03:03:13;;;;;;;3.97;0.90;;;13.90;99.90;;;;;;5012900;28;20517;-78
2024/01/24 03:05:39;;;;;;;0.65;0.45;;;13.80;99.90;;;;;;5013222;28;20026;-78
2024/01/24 03:08:05;;;;;;;3.90;1.38;;;13.80;99.90;;;;;;5013080;28;20425;-77
2024/01/24 03:10:31;;;;;;;2.05;1.85;;;13.70;99.90;;;;;;5013180;28;20045;-78
2024/01/24 03:12:57;;;;;;;10.07;1.45;;;13.80;99.90;;;;;;5012976;28;20483;-78
2024/01/24 03:15:22;;;;;;;5.78;2.47;;;13.70;99.90;;;;;;5010772;28;20123;-78
2024/01/24 03:17:48;;;;;;;3.15;1.00;;;13.60;99.90;;;;;;4992853;28;20458;-78
2024/01/24 03:20:14;;;;;;;2.60;0.30;;;13.70;99.90;;;;;;5006621;28;20041;-78
2024/01/24 03:22:41;;;;;;;2.10;0.70;;;13.70;99.90;;;;;;5011601;28;20025;-78
2024/01/24 03:25:07;;;;;;;5.32;0.95;;;13.60;99.90;;;;;;5003077;28;20065;-78
2024/01/24 03:27:33;;;;;;;6.05;1.35;;;13.50;99.90;;;;;;5000705;28;20020;-78
2024/01/24 03:29:59;;;;;;;1.27;0.30;;;13.60;99.90;;;;;;4998737;28;20034;-78
2024/01/24 03:32:25;;;;;;;6.70;1.92;;;13.60;99.90;;;;;;5008164;28;20022;-78
2024/01/24 03:34:59;;;;;;;3.08;0.93;;;13.50;99.90;;;;;;4997502;28;20081;-78
2024/01/24 03:37:25;;;;;;;7.47;1.35;;;13.50;99.90;;;;;;5007330;28;20029;-78
2024/01/24 03:39:50;;;;;;;5.05;1.75;;;13.50;99.90;;;;;;4994920;28;20022;-78
2024/01/24 03:42:17;;;;;;;3.85;2.15;;;13.50;99.90;;;;;;5005087;28;20033;-78
2024/01/24 03:44:43;;;;;;;3.40;0.63;;;13.50;99.90;;;;;;5012611;28;20073;-78
2024/01/24 03:47:09;;;;;;;9.45;1.55;;;13.40;99.90;;;;;;5005198;28;20023;-78
2024/01/24 03:49:35;;;;;;;8.32;1.13;;;13.40;99.90;;;;;;5014128;28;20375;-78
2024/01/24 03:52:01;;;;;;;3.72;1.55;;;13.40;99.90;;;;;;5015534;28;20030;-78
2024/01/24 03:54:27;;;;;;;19.08;2.97;;;13.40;99.90;;;;;;5016578;28;20034;-77
2024/01/24 03:56:53;;;;;;;19.27;2.30;;;13.40;99.90;;;;;;5016485;28;20036;-78
2024/01/24 03:59:19;;;;;;;8.77;2.13;;;13.50;99.90;;;;;;5016558;28;20391;-78
2024/01/24 04:01:44;;;;;;;24.42;2.20;;;13.30;99.90;;;;;;5016559;28;20030;-78
2024/01/24 04:04:10;;;;;;;16.85;2.22;;;13.30;99.90;;;;;;5015983;28;20026;-78
2024/01/24 04:06:36;;;;;;;11.82;0.88;;;13.30;99.90;;;;;;5015164;28;20030;-78
2024/01/24 04:09:03;;;;;;;9.52;1.73;;;13.40;99.90;;;;;;5016359;28;20030;-77
2024/01/24 04:11:29;;;;;;;8.00;0.88;;;13.30;99.90;;;;;;5016350;28;20803;-78
2024/01/24 04:13:56;;;;;;;13.40;2.53;;;13.30;99.90;;;;;;5016330;28;20030;-78
2024/01/24 04:16:22;;;;;;;4.85;1.83;;;13.30;99.90;;;;;;5015717;28;20042;-76
2024/01/24 04:18:51;;;;;;;10.32;3.80;;;13.30;99.90;;;;;;5016564;28;20018;-77
2024/01/24 04:21:17;;;;;;;20.90;2.67;;;13.30;99.90;;;;;;5016250;28;20036;-78
2024/01/24 04:23:43;;;;;;;20.77;5.50;;;13.30;99.90;;;;;;5014867;28;20112;-76
2024/01/24 04:26:09;;;;;;;13.30;1.80;;;13.20;99.90;;;;;;5014946;28;20539;-76
2024/01/24 04:28:35;;;;;;;31.48;3.28;;;13.20;99.90;;;;;;5014811;28;20030;-76
2024/01/24 04:31:01;;;;;;;8.90;2.88;;;13.10;99.90;;;;;;5015752;28;20049;-76
2024/01/24 04:33:27;;;;;;;0.40;0.40;;;13.20;99.90;;;;;;5015664;28;20030;-76
2024/01/24 04:35:55;;;;;;;4.20;1.90;;;13.20;99.90;;;;;;5015906;28;20053;-75
2024/01/24 04:38:21;;;;;;;18.02;4.10;;;13.10;99.90;;;;;;5015675;28;20105;-76
2024/01/24 04:40:47;;;;;;;2.17;0.88;;;13.10;99.90;;;;;;5015542;28;20180;-76
2024/01/24 04:43:13;;;;;;;8.50;2.15;;;13.10;99.90;;;;;;5015664;28;20101;-76
2024/01/24 04:45:38;;;;;;;11.55;2.92;;;13.10;99.90;;;;;;5015359;28;20026;-75
2024/01/24 04:48:06;;;;;;;13.88;3.05;;;13.00;99.90;;;;;;5015738;28;20426;-75
2024/01/24 04:50:32;;;;;;;11.52;2.47;;;13.00;99.90;;;;;;5015317;28;20029;-76
2024/01/24 04:52:57;;;;;;;24.10;5.65;;;13.00;99.90;;;;;;5015305;28;20382;-75
2024/01/24 04:55:23;;;;;;;40.65;5.30;;;12.90;99.90;;;;;;5014822;28;20053;-78
2024/01/24 04:57:49;;;;;;;22.83;3.67;;;12.90;99.90;;;;;;5015089;28;20030;-76
2024/01/24 05:00:16;;;;;;;11.20;3.80;;;12.90;99.90;;;;;;5014331;28;20479;-76
2024/01/24 05:02:41;;;;;;;22.77;2.50;;;12.90;99.90;;;;;;5014610;28;20414;-75
2024/01/24 05:05:07;;;;;;;17.98;2.85;;;12.90;99.90;;;;;;5015127;28;20038;-76
2024/01/24 05:07:34;;;;;;;15.32;5.13;;;12.80;99.90;;;;;;5014567;28;20026;-75
2024/01/24 05:10:02;;;;;;;22.48;3.53;;;12.70;99.90;;;;;;5015193;28;20045;-76
2024/01/24 05:12:28;;;;;;;9.25;2.95;;;12.70;99.90;;;;;;5014854;28;20030;-76
2024/01/24 05:14:54;;;;;;;13.75;3.67;;;12.70;99.90;;;;;;5014735;28;20041;-76
2024/01/24 05:17:19;;;;;;;17.20;3.22;;;12.70;99.90;;;;;;5014899;28;20090;-76
2024/01/24 05:19:45;;;;;;;9.43;2.47;;;12.70;99.90;;;;;;5013788;28;20038;-75
2024/01/24 05:22:12;;;;;;;6.47;1.85;;;12.60;99.90;;;;;;5014968;28;20068;-74
2024/01/24 05:24:39;;;;;;;22.45;3.25;;;12.70;99.90;;;;;;5013701;28;20121;-75
2024/01/24 05:27:05;;;;;;;9.13;1.35;;;12.60;99.90;;;;;;5013211;28;20113;-74
2024/01/24 05:29:31;;;;;;;23.25;7.38;;;12.60;99.90;;;;;;5014688;28;20034;-75
2024/01/24 05:31:57;;;;;;;15.13;3.30;;;12.60;99.90;;;;;;5014713;28;20041;-77
2024/01/24 05:34:22;;;;;;;28.33;4.47;;;12.60;99.90;;;;;;5014748;28;20026;-76
2024/01/24 05:36:48;;;;;;;13.68;3.15;;;12.60;99.90;;;;;;5013243;28;20045;-75
2024/01/24 05:39:15;;;;;;;23.95;4.70;;;12.60;99.90;;;;;;5014714;28;20022;-76
2024/01/24 05:41:43;;;;;;;44.13;5.10;;;12.60;99.90;;;;;;5013498;28;20037;-75
2024/01/24 05:44:09;;;;;;;49.15;4.10;;;12.70;99.90;;;;;;5014291;28;20029;-75
2024/01/24 05:46:35;;;;;;;19.63;4.25;;;12.60;99.90;;;;;;5014694;28;20030;-75
2024/01/24 05:49:01;;;;;;;17.15;4.70;;;12.60;99.90;;;;;;5014525;28;20482;-75
2024/01/24 05:51:27;;;;;;;11.48;3.20;;;12.50;99.90;;;;;;5013361;28;20029;-75
2024/01/24 05:53:53;;;;;;;14.23;3.15;;;12.50;99.90;;;;;;5013115;28;20026;-75
2024/01/24 05:56:19;;;;;;;16.00;4.65;;;12.50;99.90;;;;;;5013238;28;20105;-75
2024/01/24 05:58:45;;;;;;;23.83;3.28;;;12.50;99.90;;;;;;5013962;28;20580;-75
2024/01/24 06:01:11;;;;;;;24.05;4.53;;;12.50;99.90;;;;;;5014188;28;20101;-74
2024/01/24 06:03:36;;;;;;;21.88;2.67;;;12.50;99.90;;;;;;5012602;28;20053;-75
2024/01/24 06:06:03;;;;;;;22.20;3.40;;;12.50;99.90;;;;;;5012702;28;20018;-76
2024/01/24 06:08:31;;;;;;;21.23;4.03;;;12.50;99.90;;;;;;5014006;28;20033;-75
2024/01/24 06:10:58;;;;;;;8.27;3.63;;;12.40;99.90;;;;;;5000448;28;20140;-75
2024/01/24 06:13:24;;;;;;;20.13;5.40;;;12.40;99.90;;;;;;4995815;28;20030;-74
2024/01/24 06:15:51;;;;;;;13.55;2.58;;;12.40;99.90;;;;;;5010596;28;20045;-75
2024/01/24 06:18:18;;;;;;;33.33;5.78;;;12.40;99.90;;;;;;5013932;28;20057;-75
2024/01/24 06:20:45;;;;;;;15.02;3.47;;;12.40;99.90;;;;;;5013926;28;20021;-76
2024/01/24 06:23:11;;;;;;;12.10;1.70;;;12.30;99.90;;;;;;5013725;28;20029;-76
2024/01/24 06:25:37;;;;;;;26.63;5.47;;;12.30;99.90;;;;;;5014075;28;20030;-75
2024/01/24 06:28:03;;;;;;;26.23;2.33;;;12.30;99.90;;;;;;5013708;28;20128;-76
2024/01/24 06:30:29;;;;;;;7.07;2.65;;;12.20;99.90;;;;;;5013822;28;20479;-74
2024/01/24 06:32:55;;;;;;;23.95;5.32;;;12.20;99.90;;;;;;5013578;28;20057;-76
2024/01/24 06:35:21;;;;;;;18.27;3.63;;;12.20;99.90;;;;;;5013701;28;20038;-75
2024/01/24 06:37:48;;;;;;;13.18;2.88;;;12.10;99.90;;;;;;5013843;28;20029;-76
2024/01/24 06:40:14;;;;;;;22.77;6.07;;;12.00;99.90;;;;;;5013684;28;20069;-76
2024/01/24 06:42:41;;;;;;;23.42;4.45;;;12.00;99.90;;;;;;5012156;28;20536;-76
2024/01/24 06:45:08;;;;;;;23.08;4.70;;;12.00;99.90;;;;;;5013664;28;20038;-76
2024/01/24 06:47:34;;;;;;;13.05;3.63;;;12.00;99.90;;;;;;5013538;28;20379;-76
2024/01/24 06:50:00;;;;;;;21.42;4.35;;;12.00;99.90;;;;;;5013476;28;20052;-76
2024/01/24 06:52:26;;;;;;;14.38;3.75;;;12.00;99.90;;;;;;5013387;28;20049;-76
2024/01/24 06:54:52;;;;;;;9.63;3.05;;;11.90;99.90;;;;;;5012227;28;20038;-76
2024/01/24 06:57:18;;;;;;;42.10;7.00;;;11.90;99.90;;;;;;5012973;28;20022;-74
2024/01/24 06:59:44;;;;;;;14.45;5.63;;;11.90;99.90;;;;;;5013266;28;20061;-76
2024/01/24 07:02:10;;;;;;;26.15;3.60;;;11.90;99.90;;;;;;5013218;28;20072;-76
2024/01/24 07:04:35;;;;;;;22.75;5.90;;;11.80;99.90;;;;;;5013293;28;20415;-76
2024/01/24 07:07:02;;;;;;;20.00;2.92;;;11.80;99.90;;;;;;5013794;28;20025;-76
2024/01/24 07:09:28;;;;;;;7.25;2.15;;;11.80;99.90;;;;;;4995691;28;20492;-76
2024/01/24 07:11:54;;;;;;;17.73;3.35;;;11.70;99.90;;;;;;5013485;28;20089;-75
2024/01/24 07:14:20;;;;;;;12.02;2.72;;;11.80;99.90;;;;;;5012917;28;20077;-76
2024/01/24 07:16:46;;;;;;;41.40;6.97;;;11.70;99.90;;;;;;5004722;28;20072;-76
2024/01/24 07:19:11;;;;;;;11.30;1.30;;;11.70;99.90;;;;;;5008938;28;20081;-76
2024/01/24 07:21:37;;;;;;;10.90;2.17;;;11.60;99.90;;;;;;5008990;28;20022;-75
2024/01/24 07:24:04;;;;;;;19.17;4.65;;;11.60;99.90;;;;;;5008350;28;20132;-75
2024/01/24 07:26:30;;;;;;;17.95;3.47;;;11.60;99.90;;;;;;5008404;28;20022;-75
2024/01/24 07:28:56;;;;;;;25.90;5.15;;;11.50;99.90;;;;;;5007867;28;20817;-76
2024/01/24 07:31:21;;;;;;;9.90;2.63;;;11.50;99.90;;;;;;5008496;28;20022;-76
2024/01/24 07:33:48;;;;;;;6.63;1.45;;;11.50;99.90;;;;;;5008738;28;20030;-75
2024/01/24 07:36:14;;;;;;;15.25;2.60;;;11.50;99.90;;;;;;5024116;28;20045;-76
2024/01/24 07:38:39;;;;;;;16.67;3.42;;;11.60;99.90;;;;;;5008329;28;20026;-77
2024/01/24 07:41:07;;;;;;;22.17;2.28;;;11.50;99.90;;;;;;5008402;28;20580;-75
2024/01/24 07:43:33;;;;;;;43.53;6.22;;;11.50;99.90;;;;;;5008478;28;20145;-76
2024/01/24 07:46:00;;;;;;;33.00;8.13;;;11.50;99.90;;;;;;5008305;28;20030;-75
2024/01/24 07:48:26;;;;;;;22.42;5.32;;;11.40;99.90;;;;;;5007621;28;20017;-76
2024/01/24 07:50:52;;;;;;;5.70;2.83;;;11.40;99.90;;;;;;5006984;28;20018;-76
2024/01/24 07:53:18;;;;;;;13.73;4.03;;;11.30;99.90;;;;;;5009320;28;20033;-75
2024/01/24 07:55:43;;;;;;;25.10;6.55;;;11.30;99.90;;;;;;5004361;28;20038;-75
2024/01/24 07:58:10;;;;;;;4.68;2.15;;;11.30;99.90;;;;;;5008992;28;20045;-75
2024/01/24 08:00:36;;;;;;;19.45;3.53;;;11.30;99.90;;;;;;5008406;28;20022;-75
2024/01/24 08:03:02;;;;;;;1.02;0.93;;;11.30;99.90;;;;;;5001785;28;20360;-75
2024/01/24 08:05:29;;;;;;;20.55;2.85;;;11.30;99.90;;;;;;5003565;28;20033;-75
2024/01/24 08:07:56;;;;;;;12.25;3.53;;;11.30;99.90;;;;;;5008016;28;20097;-75
2024/01/24 08:10:21;;;;;;;30.05;3.20;;;11.30;99.90;;;;;;5006561;28;20041;-75
2024/01/24 08:12:49;;;;;;;7.13;0.60;;;11.40;99.90;;;;;;5007399;28;20052;-75
2024/01/24 08:15:15;;;;;;;14.77;7.03;;;11.30;99.90;;;;;;5007793;28;20042;-74
2024/01/24 08:17:41;;;;;;;16.10;4.53;;;11.20;99.90;;;;;;5007195;28;20037;-75
2024/01/24 08:20:08;;;;;;;6.15;1.83;;;11.30;99.90;;;;;;4990866;28;20030;-76
2024/01/24 08:22:35;;;;;;;37.03;4.63;;;11.30;99.90;;;;;;5008252;28;20030;-76
2024/01/24 08:25:01;;;;;;;21.63;3.92;;;11.30;99.90;;;;;;5006800;28;20029;-75
2024/01/24 08:27:27;;;;;;;26.02;4.30;;;11.30;99.90;;;;;;5008448;28;20038;-75
2024/01/24 08:29:53;;;;;;;21.52;5.30;;;11.40;99.90;;;;;;5007954;28;20088;-76
2024/01/24 08:32:19;;;;;;;9.57;2.05;;;11.40;99.90;;;;;;5008424;28;20010;-75
2024/01/24 08:34:45;;;;;;;14.30;3.00;;;11.40;99.90;;;;;;5008819;28;20044;-76
2024/01/24 08:37:12;;;;;;;16.95;4.07;;;11.40;99.90;;;;;;5011769;28;20718;-76
2024/01/24 08:39:39;;;;;;;29.55;5.25;;;11.40;99.90;;;;;;5010226;28;20487;-76
2024/01/24 08:42:06;;;;;;;20.45;4.55;;;11.40;99.90;;;;;;5011446;28;20026;-75
2024/01/24 08:44:32;;;;;;;31.63;5.32;;;11.40;99.90;;;;;;5010117;28;20072;-75
2024/01/24 08:46:57;;;;;;;14.35;2.95;;;11.40;99.90;;;;;;5010985;28;20038;-75
2024/01/24 08:49:23;;;;;;;20.60;3.28;;;11.40;99.90;;;;;;5012312;28;20053;-76
2024/01/24 08:51:49;;;;;;;14.63;3.92;;;11.40;99.90;;;;;;5009938;28;20064;-75
2024/01/24 08:54:15;;;;;;;22.55;3.45;;;11.40;99.90;;;;;;5027374;28;20057;-76
2024/01/24 08:56:41;;;;;;;19.60;3.50;;;11.40;99.90;;;;;;5011318;28;20029;-75
2024/01/24 08:59:07;;;;;;;15.77;3.47;;;11.40;99.90;;;;;;5026229;28;20047;-75
2024/01/24 09:01:33;;;;;;;14.57;4.18;;;11.40;99.90;;;;;;5010597;28;20420;-75
2024/01/24 09:03:59;;;;;;;26.65;4.00;;;11.40;99.90;;;;;;5010946;28;20112;-75
2024/01/24 09:06:25;;;;;;;14.90;1.92;;;11.40;99.90;;;;;;5009261;28;20026;-74
2024/01/24 09:08:52;;;;;;;18.58;3.22;;;11.40;99.90;;;;;;5010491;28;20029;-75
2024/01/24 09:11:19;;;;;;;20.35;4.03;;;11.40;99.90;;;;;;5010865;28;20030;-75
2024/01/24 09:13:49;;;;;;;11.43;3.35;;;11.40;99.90;;;;;;5009965;28;20125;-75
2024/01/24 09:16:15;;;;;;;9.45;2.17;;;11.40;99.90;;;;;;5009392;28;20124;-75
2024/01/24 09:18:42;;;;;;;25.50;4.70;;;11.40;99.90;;;;;;5011166;28;20029;-75
2024/01/24 09:21:09;;;;;;;29.50;5.15;;;11.40;99.90;;;;;;5009586;28;20026;-75
2024/01/24 09:23:35;;;;;;;25.65;1.70;;;11.40;99.90;;;;;;5011235;28;20026;-76
2024/01/24 09:26:04;;;;;;;6.68;0.95;;;11.40;99.90;;;;;;5010520;28;20088;-76
2024/01/24 09:28:30;;;;;;;16.98;3.10;;;11.50;99.90;;;;;;5009700;28;20026;-75
2024/01/24 09:30:56;;;;;;;23.65;5.88;;;11.40;99.90;;;;;;5011212;28;20057;-75
2024/01/24 09:33:23;;;;;;;11.32;1.75;;;11.40;99.90;;;;;;5009215;28;20030;-76
2024/01/24 09:35:49;;;;;;;14.65;2.20;;;11.50;99.90;;;;;;5010639;28;20045;-75
2024/01/24 09:38:15;;;;;;;34.75;6.35;;;11.50;99.90;;;;;;5025760;28;20394;-75
2024/01/24 09:40:42;;;;;;;8.05;3.03;;;11.60;99.90;;;;;;5010517;28;20517;-75
2024/01/24 09:43:13;;;;;;;22.75;4.28;;;11.70;99.90;;;;;;5009168;28;20030;-76
2024/01/24 09:45:44;;;;;;;20.70;4.28;;;11.60;99.90;;;;;;5009744;28;20081;-75
2024/01/24 09:48:11;;;;;;;2.83;1.20;;;11.70;99.90;;;;;;5000297;28;20033;-74
2024/01/24 09:50:37;;;;;;;7.47;2.58;;;11.60;99.90;;;;;;5010095;28;20390;-75
2024/01/24 09:53:05;;;;;;;24.88;2.92;;;11.60;99.90;;;;;;5009377;28;20407;-75
2024/01/24 09:55:32;;;;;;;17.05;2.83;;;11.70;99.90;;;;;;5008934;28;20037;-75
2024/01/24 09:57:59;;;;;;;5.38;2.78;;;11.60;99.90;;;;;;5010024;28;20026;-76
2024/01/24 10:00:25;;;;;;;5.57;2.53;;;11.80;99.90;;;;;;4992215;28;20506;-76
2024/01/24 10:02:51;;;;;;;31.65;4.80;;;11.80;99.90;;;;;;5025026;28;20025;-76
2024/01/24 10:05:19;;;;;;;17.05;4.47;;;11.80;99.90;;;;;;5010353;28;20055;-75
2024/01/24 10:07:45;;;;;;;21.30;5.38;;;11.70;99.90;;;;;;5009200;28;20391;-75
2024/01/24 10:10:18;;;;;;;21.58;5.95;;;11.80;99.90;;;;;;5025121;28;20425;-75
2024/01/24 10:12:44;;;;;;;10.93;1.92;;;11.90;99.90;;;;;;5009827;28;20018;-75
2024/01/24 10:15:13;;;;;;;23.50;5.75;;;11.90;99.90;;;;;;5008475;28;20442;-76
2024/01/24 10:17:43;;;;;;;15.77;3.05;;;11.90;99.90;;;;;;5009709;28;20041;-76
2024/01/24 10:20:13;;;;;;;12.93;3.10;;;11.90;99.90;;;;;;5008098;28;20032;-75
2024/01/24 10:22:42;;;;;;;16.75;3.20;;;11.90;99.90;;;;;;5025460;28;20018;-75
2024/01/24 10:25:10;;;;;;;14.18;3.28;;;11.90;99.90;;;;;;5009598;28;20030;-76
2024/01/24 10:27:38;;;;;;;12.88;2.95;;;11.90;99.90;;;;;;5009424;28;20080;-75
2024/01/24 10:30:17;;;;;;;25.58;4.63;;;12.00;99.90;;;;;;5010114;28;20846;-76
2024/01/24 10:32:48;;;;;;;14.00;2.83;;;12.10;99.90;;;;;;5009880;28;20145;-75
2024/01/24 10:35:15;;;;;;;30.98;4.78;;;12.10;99.90;;;;;;5008401;28;20033;-76
2024/01/24 10:37:44;;;;;;;16.10;4.55;;;12.10;99.90;;;;;;5008127;28;20026;-75
2024/01/24 10:40:14;;;;;;;31.05;2.38;;;12.30;99.90;;;;;;5004543;28;20033;-75
2024/01/24 10:42:42;;;;;;;5.38;1.17;;;12.30;99.90;;;;;;5008895;28;20022;-76
2024/01/24 10:45:08;;;;;;;19.70;1.92;;;12.50;99.90;;;;;;5009217;28;20119;-75
2024/01/24 10:47:35;;;;;;;26.05;5.43;;;12.50;99.90;;;;;;5003150;28;20037;-75
2024/01/24 10:50:05;;;;;;;18.58;3.78;;;12.40;99.90;;;;;;5009645;28;20030;-75
2024/01/24 10:52:34;;;;;;;25.60;3.15;;;12.40;99.90;;;;;;5009415;28;20061;-74
2024/01/24 10:55:06;;;;;;;24.95;5.10;;;12.30;99.90;;;;;;5008958;28;20080;-75
2024/01/24 10:57:35;;;;;;;12.25;2.47;;;12.30;99.90;;;;;;5007541;28;20032;-74
2024/01/24 11:00:15;;;;;;;19.00;3.10;;;12.20;99.90;;;;;;5008825;28;20032;-74
2024/01/24 11:02:41;;;;;;;16.25;3.50;;;12.20;99.90;;;;;;5008846;28;20030;-75
2024/01/24 11:05:23;;;;;;;26.23;4.60;;;12.30;99.90;;;;;;5008965;28;20033;-75
2024/01/24 11:08:02;;;;;;;5.95;3.58;;;12.40;99.90;;;;;;5009413;28;20513;-74
2024/01/24 11:10:31;;;;;;;38.67;5.00;;;12.60;99.90;;;;;;5009545;28;20061;-74
2024/01/24 11:12:57;;;;;;;13.93;2.95;;;12.70;99.90;;;;;;4991282;28;20484;-75
2024/01/24 11:15:23;;;;;;;18.98;4.32;;;12.90;99.90;;;;;;5008498;28;20034;-75
2024/01/24 11:18:26;;;;;;;19.95;3.00;;;13.00;99.90;;;;;;5007691;28;20101;-74
2024/01/24 11:20:55;;;;;;;24.48;3.08;;;13.00;99.90;;;;;;4999512;28;20042;-75
2024/01/24 11:23:46;;;;;;;23.27;4.10;;;12.90;99.90;;;;;;5007715;28;20026;-75
2024/01/24 11:26:18;;;;;;;19.05;4.47;;;13.00;99.90;;;;;;5000783;28;20080;-74
2024/01/24 11:28:45;;;;;;;20.67;4.63;;;13.10;99.90;;;;;;5008952;28;20363;-74
2024/01/24 11:31:12;;;;;;;4.45;1.00;;;12.90;99.90;;;;;;5007859;28;20766;-74
2024/01/24 11:34:14;;;;;;;17.25;1.90;;;13.00;99.90;;;;;;5008376;28;20453;-74
2024/01/24 11:36:41;;;;;;;25.60;2.97;;;13.20;99.90;;;;;;5011422;28;20083;-74
2024/01/24 11:39:30;;;;;;;2.13;0.75;;;13.10;99.90;;;;;;5012833;28;20034;-75
2024/01/24 11:42:33;;;;;;;12.07;1.92;;;13.50;99.90;;;;;;5012633;28;20050;-76
2024/01/24 11:45:17;;;;;;;9.05;1.08;;;13.90;99.90;;;;;;5008930;28;20061;-77
2024/01/24 11:47:43;;;;;;;17.80;3.10;;;13.90;99.90;;;;;;5014752;28;20026;-76
2024/01/24 11:50:11;;;;;;;29.98;4.40;;;13.40;99.90;;;;;;5011078;28;20026;-76
2024/01/24 11:52:37;;;;;;;11.63;3.40;;;13.20;99.90;;;;;;5012589;28;20030;-77
2024/01/24 11:55:04;;;;;;;8.80;2.83;;;13.30;99.90;;;;;;5011565;28;20038;-78
2024/01/24 11:57:29;;;;;;;21.77;2.85;;;13.40;99.90;;;;;;5012937;28;20022;-77
2024/01/24 11:59:56;;;;;;;6.32;1.70;;;13.30;99.90;;;;;;5012620;28;20037;-81
2024/01/24 12:02:23;;;;;;;8.55;1.65;;;13.40;99.90;;;;;;5009569;28;20036;-81
2024/01/24 12:04:53;;;;;;;16.75;2.65;;;13.40;99.90;;;;;;5011283;28;20025;-79
2024/01/24 12:07:19;;;;;;;12.00;2.10;;;13.40;99.90;;;;;;5011053;28;20026;-77
2024/01/24 12:09:46;;;;;;;7.18;2.38;;;13.40;99.90;;;;;;5012352;28;20430;-78
2024/01/24 12:12:13;;;;;;;14.18;3.83;;;13.10;99.90;;;;;;5015727;28;20026;-77
2024/01/24 12:14:40;;;;;;;8.13;1.95;;;13.10;99.90;;;;;;5016037;28;20060;-77
2024/01/24 12:17:09;;;;;;;7.47;2.25;;;13.00;99.90;;;;;;5015840;28;20069;-77
2024/01/24 12:19:39;;;;;;;9.45;1.48;;;13.00;99.90;;;;;;5016262;28;20486;-76
2024/01/24 12:22:08;;;;;;;19.05;1.90;;;13.00;99.90;;;;;;5016100;28;20040;-77
2024/01/24 12:24:38;;;;;;;8.05;2.30;;;12.80;99.90;;;;;;5016473;28;20021;-77
2024/01/24 12:27:07;;;;;;;13.52;2.90;;;12.80;99.90;;;;;;5015978;28;20029;-77
2024/01/24 12:29:33;;;;;;;15.32;3.17;;;12.80;99.90;;;;;;5015896;28;20498;-78
2024/01/24 12:32:05;;;;;;;3.88;1.10;;;12.90;99.90;;;;;;5015520;28;20018;-77
2024/01/24 12:34:31;;;;;;;;;;;12.80;99.90;;;;;;5016450;28;20107;-77
2024/01/24 12:36:57;;;;;;;10.52;2.70;;;12.90;99.90;;;;;;5015059;28;19913;-78
2024/01/24 12:39:42;;;;;;;8.88;2.90;;;12.70;99.90;;;;;;5015571;28;20363;-77